Milan Army Ammunition Plant, Tennessee
Current Conditions -  °F | °C
As of 12:53 PM on Friday 28 Nov 2014 (Local Time) from KMKL Reporting Station
Clear Clear  
Wind Chill: 50°   Ceiling: Unl
Heat Index: 50°   Visibility: 10mi
Dew Point: 25°   Wind: 12mph
Humidity: 38%   Direction: 180°S
Pressure: 30.26"   Gusts: NA
Location:  35.9258°N, 88.7624°W
Report Text: KMKL 281853Z 18010KT 10SM CLR 10/M04 A3026 RMK AO2 SLP249 T01001039
Loading
Personal Weather Stations






























Interactive Weather Map New forecast layout! Learn more

10-Day Weather Forecast

Advertisements
Track Severe Weather on mobile